»·PEaware :: TPX615 KPHX-KLAS

TPX615 :: KPHX-KLAS

FLIGHT INFORMATION

Flight Status: Arrived
Operator: ATP Experience
More flights by this operator :: More flights under this callsign
Pilot: Dave P. (45)
Aircraft: BOEING 737-800
(B738)
More flights by this aircraft type
Origin: KPHX Phoenix Sky Harbor Intl
United States
Destination: KLAS McCarran Intl
United States
More flights between these airports :: More routes between these airports
Route: +ZEPER1 SISIE IGM TYSSN5
File this flight plan on PilotEdge
Remarks: PBN / A1B1C1D1S1S2 DOF / 180624 REG / N738PM EET / KZLA0021 OPR / TPX PER / D RMK / TCAS SIMBRIEF
Altitude:
(Current/Filed)
28,000ft
Speed:
(Current/Filed)
476kts
Departed: 24-Jun-18 07:26 AM
Arrived: 24-Jun-18 08:14 AM
Distance/Time
Traveled:
221nm/0:48
Distance/Time
To Go:
Arrived

Flight Plot

Page will automatically refresh every two minutes.

Flight plan parsing failed; only flown route is shown


Map Options




Map Legend


Flown Route
Filed Route
Departure Airport
Arrival Airport
Navaid (VOR, NDB)
Fix

Horizontal Profiles

Position Reports

Time Latitude Longitude Heading Altitude Ground
Speed
24-Jun-18 07:02 33.438247 -112.008477 236 1143ft 0kts
24-Jun-18 07:03 33.438247 -112.008477 236 1143ft 0kts
24-Jun-18 07:04 33.438247 -112.008477 236 1143ft 0kts
24-Jun-18 07:05 33.438247 -112.008477 236 1143ft 0kts
24-Jun-18 07:06 33.438247 -112.008477 236 1143ft 0kts
24-Jun-18 07:07 33.438247 -112.008477 236 1143ft 0kts
24-Jun-18 07:08 33.438247 -112.008477 236 1143ft 0kts
24-Jun-18 07:09 33.438247 -112.008477 236 1143ft 0kts
24-Jun-18 07:10 33.438247 -112.008477 236 1143ft 0kts
24-Jun-18 07:11 33.438247 -112.008477 236 1143ft 0kts
24-Jun-18 07:12 33.438247 -112.008477 236 1143ft 0kts
24-Jun-18 07:13 33.438247 -112.008477 236 1143ft 0kts
24-Jun-18 07:14 33.438247 -112.008477 236 1143ft 0kts
24-Jun-18 07:15 33.438247 -112.008477 236 1143ft 0kts
24-Jun-18 07:16 33.438247 -112.008477 236 1143ft 0kts
24-Jun-18 07:17 33.438359 -112.007821 284 1143ft 2kts
24-Jun-18 07:18 33.438140 -112.007391 315 1143ft 0kts
24-Jun-18 07:19 33.438141 -112.007392 315 1143ft 0kts
24-Jun-18 07:20 33.438512 -112.007412 1 1143ft 9kts
24-Jun-18 07:21 33.438996 -112.011529 269 1143ft 21kts
24-Jun-18 07:22 33.438994 -112.018323 269 1143ft 19kts
24-Jun-18 07:23 33.438996 -112.025541 269 1143ft 22kts
24-Jun-18 07:24 33.439606 -112.029674 0 1143ft 7kts
24-Jun-18 07:25 33.440230 -112.029678 359 1143ft 8kts
24-Jun-18 07:26 33.440843 -112.019803 90 1143ft 112kts
24-Jun-18 07:27 33.439712 -111.965273 94 3138ft 180kts
24-Jun-18 07:28 33.436236 -111.889205 84 4544ft 273kts
24-Jun-18 07:29 33.496252 -111.838414 1 7407ft 295kts
24-Jun-18 07:30 33.580250 -111.837630 357 10288ft 307kts
24-Jun-18 07:31 33.672378 -111.839596 349 11775ft 363kts
24-Jun-18 07:32 33.759517 -111.895897 308 14207ft 368kts
24-Jun-18 07:33 33.821728 -111.995506 305 16718ft 378kts
24-Jun-18 07:34 33.885045 -112.099069 305 18938ft 390kts
24-Jun-18 07:35 33.950282 -112.206523 305 20888ft 403kts
24-Jun-18 07:36 34.017779 -112.316778 308 22667ft 415kts
24-Jun-18 07:37 34.104223 -112.411734 318 24269ft 427kts
24-Jun-18 07:38 34.196452 -112.504410 318 25814ft 434kts
24-Jun-18 07:39 34.289743 -112.598683 319 27351ft 438kts
24-Jun-18 07:40 34.383344 -112.692905 319 28109ft 437kts
24-Jun-18 07:41 34.476191 -112.787288 319 28130ft 434kts
24-Jun-18 07:42 34.568478 -112.881487 318 28128ft 434kts
24-Jun-18 07:43 34.658569 -112.979661 317 28110ft 434kts
24-Jun-18 07:44 34.748072 -113.077855 317 28130ft 434kts
24-Jun-18 07:45 34.837650 -113.175751 317 28115ft 432kts
24-Jun-18 07:46 34.927087 -113.274353 317 28098ft 432kts
24-Jun-18 07:47 35.005956 -113.384076 301 28081ft 433kts
24-Jun-18 07:48 35.064866 -113.510198 300 28061ft 420kts
24-Jun-18 07:49 35.121753 -113.632694 300 26899ft 405kts
24-Jun-18 07:50 35.176458 -113.750846 299 24898ft 394kts
24-Jun-18 07:51 35.229384 -113.866128 299 22937ft 384kts
24-Jun-18 07:52 35.295157 -113.966139 320 20989ft 376kts
24-Jun-18 07:53 35.377506 -114.042734 322 19075ft 368kts
24-Jun-18 07:54 35.458128 -114.117872 322 17201ft 360kts
24-Jun-18 07:55 35.537580 -114.191629 322 15360ft 354kts
24-Jun-18 07:56 35.615109 -114.264061 322 13578ft 347kts
24-Jun-18 07:57 35.689905 -114.334209 322 12475ft 323kts
24-Jun-18 07:58 35.761591 -114.392879 336 11852ft 299kts
24-Jun-18 07:59 35.839220 -114.428801 338 11341ft 301kts
24-Jun-18 08:00 35.917450 -114.465286 337 10810ft 300kts
24-Jun-18 08:01 35.992769 -114.504552 313 10287ft 278kts
24-Jun-18 08:02 35.991330 -114.587254 252 9846ft 243kts
24-Jun-18 08:03 35.971461 -114.667030 252 8652ft 242kts
24-Jun-18 08:04 35.952132 -114.746198 252 7999ft 237kts
24-Jun-18 08:05 35.931453 -114.829971 252 8002ft 274kts
24-Jun-18 08:06 35.908832 -114.921078 252 8010ft 277kts
24-Jun-18 08:07 35.886069 -115.012061 252 8022ft 278kts
24-Jun-18 08:08 35.863849 -115.100863 255 7484ft 264kts
24-Jun-18 08:09 35.894623 -115.174532 312 6754ft 229kts
24-Jun-18 08:10 35.935659 -115.225984 331 5849ft 205kts
24-Jun-18 08:11 35.989663 -115.219299 25 4320ft 207kts
24-Jun-18 08:12 36.039024 -115.190984 26 3145ft 178kts
24-Jun-18 08:13 36.080073 -115.167436 25 2194ft 148kts
24-Jun-18 08:14 36.093482 -115.158888 114 2189ft 5kts
24-Jun-18 08:15 36.092326 -115.155833 114 2189ft 4kts
24-Jun-18 08:16 36.089521 -115.156549 204 2189ft 18kts
24-Jun-18 08:17 36.085823 -115.157423 154 2189ft 18kts
24-Jun-18 08:18 36.081359 -115.154845 155 2189ft 17kts
24-Jun-18 08:19 36.078740 -115.151962 91 2189ft 15kts
24-Jun-18 08:20 36.078421 -115.146032 94 2189ft 18kts
24-Jun-18 08:21 36.078235 -115.140826 89 2189ft 13kts
24-Jun-18 08:22 36.079816 -115.139206 323 2189ft 7kts
24-Jun-18 08:23 36.080011 -115.139382 323 2189ft 0kts
24-Jun-18 08:24 36.080011 -115.139382 323 2189ft 0kts
24-Jun-18 08:25 36.080011 -115.139382 323 2189ft 0kts
24-Jun-18 08:26 36.080011 -115.139382 323 2189ft 0kts
24-Jun-18 08:27 36.080011 -115.139382 323 2189ft 0kts
24-Jun-18 08:28 36.080011 -115.139382 323 2189ft 0kts

Navigation Log

Ident Type
Flight plan parsing failed, navigation log unavailable